Blackstone, Illinois
Current Conditions -  °F | °C
As of 1:55 AM on Saturday 25 Oct 2014 (Local Time) from KPNT Reporting Station
Overcast Overcast  
Wind Chill: 60°   Ceiling: 2500
Heat Index: 60°   Visibility: 10mi
Dew Point: 53°   Wind: 5mph
Humidity: 78%   Direction: 240°WSW
Pressure: 29.94"   Gusts: NA
Location:  41.08°N, 88.69°W
Report Text: KPNT 250655Z AUTO 24004KT 10SM BKN025 OVC037 16/12 A2994 RMK AO2 T01570118
Loading
Personal Weather Stations






























Interactive Weather Map
Tropical Storm Tracking
New forecast layout! Learn more

10-Day Weather Forecast

Advertisements
Track Severe Weather on mobile